Main page
METAR-TAF:

METAR-TAF

Airports :

Dundee, Scotland

Dundee Airport

latitude: 56-27N, longitude: 003-01W, elevation: 4 m

Current weather observation

The report was made 8 hours and 2 minutes ago, at 20:50 UTC
Wind 2 kt from the East
Temperature 12°C
Humidity 94%
Pressure 990 hPa
Visibility 10 km or more
Few clouds at a height of 1000 ft
Scattered clouds at a height of 2000 ft

METAR: EGPN 212050Z 10002KT 9999 FEW010 SCT020 12/11 Q0990

Time: 05:52 (04:52 UTC)

Forecast

The report was made 17 hours and 52 minutes ago, at 11:00 UTC
Forecast valid from 21 at 12 UTC to 21 at 16 UTC
Wind 12 kt from the East/Southeast
Visibility 10 km or more
Few clouds at a height of 1000 ft
Scattered clouds at a height of 3500 ft
Probability 40% :
Temporary
from 21 at 12 UTC to 21 at 16 UTC
Visibility: 6000 m
rain

TAF: EGPN 211100Z 2112/2116 11012KT 9999 FEW010 SCT035 PROB40 TEMPO 2112/2116 6000 RA

Weather observations and forecasts of more than 4000 airports (METAR and TAF reports).

The available stations are represented by yellow and red dots on the map.

Hover mouse over dot to see the name of the station.

Then click to see weather observations and forecasts.

To change the map : click on the green buttons with a black cross to zoom in, on the green button with a dash to zoom out, or on the green arrows for adjacent maps.


METAR-TAF: